アスタナ の空港の天気 - METARとTAF

アスタナ国際空港 ( UACC / TSE ) - カザフスタン アスタナ
飛行場実況気象(Metar)
観測時間11/30 23:00 QYZT (11/30 18:00 UTC)
風向・風速東 10m/s
視程10km以上
天気現象
なし
気温-14℃
湿度55%
気圧1026hPa
METARUACC 301800Z 10010MPS CAVOK M14/M21 Q1026 NOSIG RMK QFE738/0984
過去の天気等 Google飛行場航空写真 Wunderground天気予報

過去48時間のMETAR

飛行場予報(TAF)
発表時間: 11/30 22:11 QYZT (11/30 17:11 UTC)
予報対象時間: 30日23時 QYZT ~ 1日23時 QYZT
風向・風速東北東 10m/s
視程10km以上
全天の8割程度の雲 雲底高度 340m
全天の8割程度の雲 雲底高度 1520m
30日23時 QYZT ~ 1日1時 QYZT に一時的に
風向・風速東 9m/s 瞬間風速 14m/s
1日1時 QYZT ~ 1日9時 QYZT に一時的に
風向・風速東 12m/s 瞬間風速 17m/s
視程1000m
天気現象しゅう雪 高い地吹雪
全天の8割程度の雲 雲底高度 210m
全天の8割程度の積乱雲 雲底高度 340m
1日9時 QYZT ~ 1日11時 QYZT に徐々に
風向・風速北東 10m/s
1日9時 QYZT ~ 1日19時 QYZT に一時的に
風向・風速北東 12m/s 瞬間風速 17m/s
視程2000m
天気現象雪 高い地吹雪
全天の8割程度の雲 雲底高度 270m
1日19時 QYZT ~ 1日21時 QYZT に徐々に
風向・風速東北東 7m/s
TAF UACC 301711Z 3018/0118 06010MPS 9999 BKN011 BKN050 TXM14/0109Z TNM18/0103Z
TEMPO 3018/3020 09009G14MPS
TEMPO 3020/0104 08012G17MPS 1000 SHSN BLSN BKN007 BKN011CB
BECMG 0104/0106 05010MPS
TEMPO 0104/0114 05012G17MPS 2000 SN BLSN BKN009
BECMG 0114/0116 06007MPS